Time;durP1;ratioP1;P1;durP2;ratioP2;P2;SDS_P1;SDS_P2;PMS_P1;PMS_P2;Temp;Humidity;BMP_temperature;BMP_pressure;BME280_temperature;BME280_humidity;BME280_pressure;Samples;Min_cycle;Max_cycle;Signal;HPM_P1;HPM_P2
2023/12/15 00:02:16;;;;;;;0.50;0.50;;;;;;;8.59;100.00;99111.16;5071546;28;20265;-65
2023/12/15 00:04:42;;;;;;;0.40;0.40;;;;;;;8.58;100.00;99111.16;5074293;28;20196;-65
2023/12/15 00:07:09;;;;;;;0.50;0.50;;;;;;;8.54;100.00;99118.06;5071400;28;20702;-65
2023/12/15 00:09:36;;;;;;;0.40;0.40;;;;;;;8.56;100.00;99129.13;5070905;28;20212;-65
2023/12/15 00:12:04;;;;;;;0.60;0.60;;;;;;;8.57;100.00;99124.81;5071207;28;20249;-65
2023/12/15 00:14:31;;;;;;;0.50;0.50;;;;;;;8.47;100.00;99123.38;5071217;28;20200;-65
2023/12/15 00:16:58;;;;;;;0.50;0.50;;;;;;;8.51;100.00;99125.81;5073291;28;20208;-65
2023/12/15 00:19:25;;;;;;;0.50;0.50;;;;;;;8.53;100.00;99131.72;5071074;28;20649;-65
2023/12/15 00:21:52;;;;;;;0.50;0.50;;;;;;;8.56;100.00;99143.59;5070873;28;20254;-67
2023/12/15 00:24:18;;;;;;;0.50;0.50;;;;;;;8.55;100.00;99147.03;5070958;28;20631;-65
2023/12/15 00:26:45;;;;;;;0.53;0.53;;;;;;;8.54;100.00;99155.56;5070862;28;20192;-65
2023/12/15 00:29:13;;;;;;;0.40;0.40;;;;;;;8.52;100.00;99154.75;5072197;28;20211;-65
2023/12/15 00:31:40;;;;;;;0.60;0.60;;;;;;;8.54;100.00;99145.34;5074815;28;20196;-65
2023/12/15 00:34:06;;;;;;;1.00;1.00;;;;;;;8.56;100.00;99169.16;5074862;28;20200;-66
2023/12/15 00:36:33;;;;;;;0.47;0.47;;;;;;;8.50;100.00;99165.00;5074818;28;20269;-66
2023/12/15 00:39:00;;;;;;;0.50;0.50;;;;;;;8.54;100.00;99170.88;5074458;28;20250;-65
2023/12/15 00:41:27;;;;;;;0.50;0.50;;;;;;;8.55;100.00;99177.69;5074907;28;20204;-65
2023/12/15 00:43:53;;;;;;;0.53;0.53;;;;;;;8.45;100.00;99166.84;5074369;28;20261;-65
2023/12/15 00:46:21;;;;;;;0.43;0.43;;;;;;;8.50;100.00;99174.41;5074828;28;20633;-66
2023/12/15 00:48:48;;;;;;;0.60;0.60;;;;;;;8.57;100.00;99178.47;5074240;28;20223;-65
2023/12/15 00:51:15;;;;;;;0.50;0.50;;;;;;;8.62;100.00;99184.31;5074308;28;20223;-65
2023/12/15 00:53:42;;;;;;;0.50;0.50;;;;;;;8.60;100.00;99191.16;5074506;28;20635;-65
2023/12/15 00:56:10;;;;;;;0.50;0.50;;;;;;;8.59;100.00;99195.47;5075272;28;20211;-65
2023/12/15 00:58:36;;;;;;;0.50;0.50;;;;;;;8.62;100.00;99194.53;5074497;28;20614;-65
2023/12/15 01:01:04;;;;;;;1.60;0.47;;;;;;;8.57;100.00;99184.41;5056433;28;20680;-65
2023/12/15 01:03:32;;;;;;;0.50;0.50;;;;;;;8.55;100.00;99182.78;5074770;28;20250;-66
2023/12/15 01:05:59;;;;;;;0.53;0.53;;;;;;;8.60;100.00;99201.38;5058955;28;20249;-65
2023/12/15 01:08:25;;;;;;;0.50;0.50;;;;;;;8.57;100.00;99196.34;5080803;28;21928;-65
2023/12/15 01:10:52;;;;;;;0.40;0.40;;;;;;;8.60;100.00;99215.00;5074036;28;20294;-66
2023/12/15 01:13:19;;;;;;;0.40;0.40;;;;;;;8.58;100.00;99214.22;5074063;28;20215;-65
2023/12/15 01:15:46;;;;;;;1.70;0.60;;;;;;;8.58;100.00;99218.47;5074226;28;20627;-65
2023/12/15 01:18:12;;;;;;;0.40;0.40;;;;;;;8.54;100.00;99221.97;5073888;28;20200;-65
2023/12/15 01:20:40;;;;;;;0.53;0.53;;;;;;;8.53;100.00;99222.88;5073975;28;20192;-65
2023/12/15 01:23:07;;;;;;;0.50;0.50;;;;;;;8.51;100.00;99224.59;5073739;28;20673;-66
2023/12/15 01:25:34;;;;;;;0.60;0.60;;;;;;;8.48;100.00;99222.97;5073662;28;20207;-66
2023/12/15 01:28:01;;;;;;;0.50;0.50;;;;;;;8.52;100.00;99228.84;5073480;28;20290;-65
2023/12/15 01:30:27;;;;;;;0.50;0.50;;;;;;;8.44;100.00;99229.03;5073693;28;20666;-65
2023/12/15 01:32:54;;;;;;;0.50;0.50;;;;;;;8.49;100.00;99239.16;5073810;28;20338;-66
2023/12/15 01:35:21;;;;;;;0.50;0.50;;;;;;;8.48;100.00;99247.66;5073407;28;20192;-65
2023/12/15 01:37:49;;;;;;;0.50;0.50;;;;;;;8.47;100.00;99251.09;5073832;28;20204;-65
2023/12/15 01:40:16;;;;;;;0.50;0.50;;;;;;;8.47;100.00;99251.09;5076569;28;20667;-65
2023/12/15 01:42:42;;;;;;;0.50;0.50;;;;;;;8.39;100.00;99241.94;5073282;28;20196;-66
2023/12/15 01:45:10;;;;;;;0.50;0.50;;;;;;;8.42;100.00;99259.72;5073794;28;20666;-65
2023/12/15 01:47:37;;;;;;;0.40;0.40;;;;;;;8.43;100.00;99256.28;5073484;28;20200;-65
2023/12/15 01:50:04;;;;;;;0.50;0.50;;;;;;;8.36;100.00;99253.94;5073587;28;20220;-66
2023/12/15 01:52:31;;;;;;;0.50;0.50;;;;;;;8.42;100.00;99274.22;5072838;28;20269;-65
2023/12/15 01:54:59;;;;;;;0.40;0.40;;;;;;;8.41;100.00;99278.47;5073410;28;20250;-65
2023/12/15 01:57:26;;;;;;;0.47;0.47;;;;;;;8.40;100.00;99275.97;5073222;28;20200;-65
2023/12/15 01:59:52;;;;;;;0.70;0.70;;;;;;;8.38;100.00;99278.56;5072871;28;20638;-66
2023/12/15 02:02:19;;;;;;;0.50;0.50;;;;;;;8.30;100.00;99270.22;5073006;28;20204;-66
2023/12/15 02:04:46;;;;;;;0.50;0.50;;;;;;;8.38;100.00;99288.75;5077558;28;20204;-66
2023/12/15 02:07:13;;;;;;;0.43;0.43;;;;;;;8.38;100.00;99293.88;5073097;28;20204;-65
2023/12/15 02:09:40;;;;;;;0.40;0.40;;;;;;;8.36;100.00;99297.34;5073081;28;20212;-64
2023/12/15 02:12:08;;;;;;;0.60;0.60;;;;;;;8.36;100.00;99300.75;5072984;28;20258;-65
2023/12/15 02:14:35;;;;;;;0.50;0.50;;;;;;;8.38;100.00;99293.88;5073028;28;20254;-66
2023/12/15 02:17:02;;;;;;;0.50;0.50;;;;;;;8.41;100.00;99298.91;5072821;28;20691;-66
2023/12/15 02:19:28;;;;;;;0.47;0.47;;;;;;;8.37;100.00;99299.84;5073003;28;20192;-65
2023/12/15 02:21:55;;;;;;;0.80;0.80;;;;;;;8.39;100.00;99310.88;5072664;28;20314;-65
2023/12/15 02:24:23;;;;;;;0.53;0.53;;;;;;;8.40;100.00;99314.28;5072852;28;20261;-65
2023/12/15 02:26:50;;;;;;;0.50;0.50;;;;;;;8.39;100.00;99313.44;5072775;28;20207;-65
2023/12/15 02:29:17;;;;;;;0.60;0.60;;;;;;;8.39;100.00;99316.00;5075257;28;20219;-65
2023/12/15 02:31:43;;;;;;;0.57;0.57;;;;;;;8.37;100.00;99322.84;5072798;28;20629;-65
2023/12/15 02:34:10;;;;;;;0.53;0.53;;;;;;;8.38;100.00;99328.78;5073109;28;20263;-65
2023/12/15 02:36:37;;;;;;;0.40;0.40;;;;;;;8.39;100.00;99330.47;5072625;28;20257;-65
2023/12/15 02:39:03;;;;;;;0.50;0.50;;;;;;;8.40;100.00;99332.97;5072466;28;20192;-65
2023/12/15 02:41:33;;;;;;;0.60;0.60;;;;;;;8.36;100.00;99335.66;5073331;28;20249;-66
2023/12/15 02:43:59;;;;;;;0.50;0.50;;;;;;;8.40;100.00;99335.53;5071052;28;20261;-65
2023/12/15 02:46:26;;;;;;;0.53;0.53;;;;;;;8.36;100.00;99341.59;5072610;28;20258;-65
2023/12/15 02:48:53;;;;;;;0.53;0.53;;;;;;;8.36;100.00;99345.88;5072307;28;20258;-65
2023/12/15 02:51:27;;;;;;;0.50;0.50;;;;;;;8.35;100.00;99344.19;5076707;28;20281;-65
2023/12/15 02:53:54;;;;;;;0.43;0.43;;;;;;;8.34;100.00;99348.44;5069695;28;20675;-65
2023/12/15 02:56:20;;;;;;;0.60;0.60;;;;;;;8.33;100.00;99346.78;5071845;28;20211;-65
2023/12/15 02:58:48;;;;;;;0.47;0.47;;;;;;;8.34;100.00;99340.78;5072117;28;20234;-65
2023/12/15 03:01:15;;;;;;;0.40;0.40;;;;;;;8.29;100.00;99334.09;5071646;28;20200;-65
2023/12/15 03:03:42;;;;;;;0.50;0.50;;;;;;;8.34;100.00;99353.56;5072221;28;20207;-65
2023/12/15 03:06:09;;;;;;;0.40;0.40;;;;;;;8.31;100.00;99353.63;5071771;28;20204;-65
2023/12/15 03:08:36;;;;;;;0.70;0.70;;;;;;;8.32;100.00;99347.66;5071929;28;20200;-65
2023/12/15 03:11:03;;;;;;;0.40;0.40;;;;;;;8.31;100.00;99353.63;5071866;28;20208;-66
2023/12/15 03:13:30;;;;;;;0.40;0.40;;;;;;;8.21;100.00;99344.44;5071488;28;20204;-66
2023/12/15 03:16:05;;;;;;;0.47;0.47;;;;;;;8.27;100.00;99356.25;5071830;28;20246;-65
2023/12/15 03:18:32;;;;;;;0.47;0.47;;;;;;;8.27;100.00;99351.97;5071064;28;20211;-65
2023/12/15 03:20:58;;;;;;;0.40;0.40;;;;;;;8.26;100.00;99352.88;5071863;28;20668;-65
2023/12/15 03:23:25;;;;;;;0.40;0.40;;;;;;;8.24;100.00;99352.03;5071629;28;20249;-63
2023/12/15 03:25:52;;;;;;;0.40;0.40;;;;;;;8.25;100.00;99363.09;5071924;28;20253;-63
2023/12/15 03:28:18;;;;;;;0.50;0.50;;;;;;;8.27;100.00;99374.13;5071130;28;20199;-63
2023/12/15 03:30:45;;;;;;;0.60;0.60;;;;;;;8.21;100.00;99377.63;5071167;28;20212;-63
2023/12/15 03:33:13;;;;;;;0.40;0.40;;;;;;;8.26;100.00;99378.41;5071291;28;20249;-62
2023/12/15 03:35:40;;;;;;;0.50;0.50;;;;;;;8.27;100.00;99392.00;5071111;28;20208;-63
2023/12/15 03:38:07;;;;;;;0.53;0.53;;;;;;;8.23;100.00;99386.13;5072281;28;20200;-63
2023/12/15 03:40:34;;;;;;;0.60;0.60;;;;;;;8.25;100.00;99399.69;5070546;28;20207;-63
2023/12/15 03:43:01;;;;;;;0.40;0.40;;;;;;;8.25;100.00;99402.25;5071235;28;20204;-64
2023/12/15 03:45:27;;;;;;;0.40;0.40;;;;;;;8.22;100.00;99407.41;5070804;28;20663;-63
2023/12/15 03:47:54;;;;;;;0.40;0.40;;;;;;;8.18;100.00;99403.25;5071028;28;20199;-62
2023/12/15 03:50:23;;;;;;;0.50;0.50;;;;;;;8.24;100.00;99413.31;5070793;28;20757;-63
2023/12/15 03:52:50;;;;;;;0.50;0.50;;;;;;;8.22;100.00;99412.53;5070897;28;20211;-63
2023/12/15 03:55:17;;;;;;;0.57;0.57;;;;;;;8.23;100.00;99410.81;5071263;28;20281;-63
2023/12/15 03:57:43;;;;;;;0.60;0.60;;;;;;;8.20;100.00;99409.19;5070828;28;20200;-63
2023/12/15 04:00:11;;;;;;;0.40;0.40;;;;;;;8.14;100.00;99414.38;5070561;28;20196;-63
2023/12/15 04:02:38;;;;;;;0.60;0.60;;;;;;;8.09;100.00;99418.75;5072008;28;20203;-63
2023/12/15 04:05:05;;;;;;;0.60;0.60;;;;;;;8.07;100.00;99423.06;5073313;28;20196;-63
2023/12/15 04:07:33;;;;;;;0.73;0.73;;;;;;;8.07;100.00;99425.63;5073245;28;20686;-63
2023/12/15 04:10:00;;;;;;;0.50;0.50;;;;;;;8.07;100.00;99422.22;5082407;28;20580;-64
2023/12/15 04:12:27;;;;;;;0.50;0.50;;;;;;;8.08;100.00;99426.47;5091099;28;20630;-63
2023/12/15 04:14:54;;;;;;;0.63;0.63;;;;;;;8.08;100.00;99421.34;5075864;28;20257;-63
2023/12/15 04:17:20;;;;;;;0.50;0.50;;;;;;;8.06;100.00;99418.81;5074614;28;20200;-63
2023/12/15 04:19:47;;;;;;;1.47;1.47;;;;;;;8.10;100.00;99420.44;5074231;28;20325;-63
2023/12/15 04:22:14;;;;;;;0.50;0.50;;;;;;;8.06;100.00;99423.91;5077459;28;20200;-63
2023/12/15 04:24:42;;;;;;;0.50;0.50;;;;;;;8.00;100.00;99426.59;5074620;28;20624;-63
2023/12/15 04:27:09;;;;;;;0.50;0.50;;;;;;;8.03;100.00;99426.53;5073930;28;20218;-63
2023/12/15 04:29:36;;;;;;;0.40;0.40;;;;;;;8.02;100.00;99427.41;5074147;28;20276;-63
2023/12/15 04:32:02;;;;;;;0.60;0.60;;;;;;;8.00;100.00;99439.38;5075372;28;20679;-63
2023/12/15 04:34:29;;;;;;;0.60;0.60;;;;;;;8.00;100.00;99438.50;5074598;28;20281;-63
2023/12/15 04:36:56;;;;;;;0.43;0.43;;;;;;;7.98;100.00;99446.19;5073908;28;20199;-63
2023/12/15 04:39:23;;;;;;;0.53;0.53;;;;;;;7.99;100.00;99447.03;5074298;28;20629;-63
2023/12/15 04:41:51;;;;;;;0.70;0.70;;;;;;;7.99;100.00;99447.03;5075067;28;20204;-63
2023/12/15 04:44:17;;;;;;;0.70;0.70;;;;;;;7.98;100.00;99430.88;5077870;28;20207;-63
2023/12/15 04:46:44;;;;;;;0.50;0.50;;;;;;;7.89;100.00;99441.25;5074211;28;20287;-63
2023/12/15 04:49:11;;;;;;;0.60;0.60;;;;;;;7.95;100.00;99456.47;5073956;28;20192;-63
2023/12/15 04:51:38;;;;;;;0.63;0.63;;;;;;;7.95;100.00;99469.22;5073712;28;20285;-63
2023/12/15 04:54:04;;;;;;;0.40;0.40;;;;;;;7.89;100.00;99459.13;5072702;28;20204;-62
2023/12/15 04:56:31;;;;;;;0.50;0.50;;;;;;;7.86;100.00;99461.75;5071861;28;20230;-64
2023/12/15 04:58:59;;;;;;;0.50;0.50;;;;;;;7.93;100.00;99473.53;5073773;28;20204;-63
2023/12/15 05:01:26;;;;;;;0.40;0.40;;;;;;;7.95;100.00;99465.84;5077936;28;20268;-63
2023/12/15 05:03:52;;;;;;;0.53;0.53;;;;;;;7.97;100.00;99480.25;5074768;28;20573;-63
2023/12/15 05:06:20;;;;;;;0.50;0.50;;;;;;;7.96;100.00;99482.81;5073571;28;20204;-63
2023/12/15 05:08:47;;;;;;;0.70;0.70;;;;;;;7.93;100.00;99483.72;5074113;28;20253;-63
2023/12/15 05:11:14;;;;;;;6.43;0.77;;;;;;;7.90;100.00;99484.63;5073545;28;20211;-64
2023/12/15 05:13:41;;;;;;;0.60;0.60;;;;;;;7.98;100.00;99492.13;5073109;28;20553;-63
2023/12/15 05:16:09;;;;;;;0.50;0.50;;;;;;;7.80;100.00;99467.81;5071896;28;20321;-63
2023/12/15 05:18:36;;;;;;;0.57;0.57;;;;;;;7.96;100.00;99495.59;5076002;28;20729;-63
2023/12/15 05:21:04;;;;;;;0.57;0.57;;;;;;;7.89;100.00;99503.38;5073286;28;20222;-63
2023/12/15 05:23:31;;;;;;;0.67;0.67;;;;;;;7.92;100.00;99502.47;5074402;28;20196;-63
2023/12/15 05:25:57;;;;;;;0.60;0.60;;;;;;;7.93;100.00;99504.16;5073010;28;20207;-63
2023/12/15 05:28:24;;;;;;;0.60;0.60;;;;;;;7.96;100.00;99503.25;5073084;28;20196;-62
2023/12/15 05:30:51;;;;;;;0.70;0.70;;;;;;;7.95;100.00;99502.41;5072922;28;20253;-63
2023/12/15 05:33:19;;;;;;;0.97;0.97;;;;;;;7.96;100.00;99513.47;5073284;28;20196;-63
2023/12/15 05:35:46;;;;;;;0.47;0.47;;;;;;;7.97;100.00;99518.56;5073022;28;20197;-64
2023/12/15 05:38:12;;;;;;;0.50;0.50;;;;;;;7.99;100.00;99516.81;5072593;28;20620;-63
2023/12/15 05:40:40;;;;;;;0.60;0.60;;;;;;;7.98;100.00;99512.56;5073034;28;20200;-63
2023/12/15 05:43:07;;;;;;;0.50;0.50;;;;;;;8.00;100.00;99520.19;5074088;28;20192;-64
2023/12/15 05:45:33;;;;;;;0.57;0.57;;;;;;;8.00;100.00;99520.19;5073094;28;20629;-64
2023/12/15 05:48:00;;;;;;;0.47;0.47;;;;;;;8.03;100.00;99526.09;5072858;28;20200;-62
2023/12/15 05:50:28;;;;;;;0.60;0.60;;;;;;;7.91;100.00;99513.56;5072561;28;20223;-63
2023/12/15 05:52:55;;;;;;;0.57;0.57;;;;;;;7.97;100.00;99523.66;5072714;28;20200;-63
2023/12/15 05:55:22;;;;;;;0.60;0.60;;;;;;;7.90;100.00;99511.88;5072746;28;20200;-63
2023/12/15 05:57:48;;;;;;;0.50;0.50;;;;;;;8.00;100.00;99531.25;5073132;28;20200;-63
2023/12/15 06:00:16;;;;;;;0.50;0.50;;;;;;;8.02;100.00;99537.16;5071831;28;20670;-63
2023/12/15 06:02:43;;;;;;;0.50;0.50;;;;;;;8.01;100.00;99542.31;5071131;28;20273;-64
2023/12/15 06:05:10;;;;;;;0.40;0.40;;;;;;;8.00;100.00;99540.63;5073207;28;20249;-63
2023/12/15 06:07:38;;;;;;;0.70;0.70;;;;;;;8.03;100.00;99550.78;5074047;28;20253;-63
2023/12/15 06:10:05;;;;;;;0.70;0.70;;;;;;;8.00;100.00;99556.78;5072844;28;20626;-63
2023/12/15 06:12:32;;;;;;;0.50;0.50;;;;;;;8.02;100.00;99559.28;5076435;28;20254;-64
2023/12/15 06:14:59;;;;;;;0.63;0.63;;;;;;;8.01;100.00;99553.38;5073354;28;20204;-63
2023/12/15 06:17:25;;;;;;;0.50;0.50;;;;;;;8.00;100.00;99551.69;5072202;28;20269;-62
2023/12/15 06:19:52;;;;;;;0.43;0.43;;;;;;;8.02;100.00;99552.47;5072873;28;20709;-65
2023/12/15 06:22:19;;;;;;;0.50;0.50;;;;;;;8.00;100.00;99567.00;5072830;28;20242;-65
2023/12/15 06:24:47;;;;;;;0.80;0.80;;;;;;;8.05;100.00;99567.75;5072945;28;20749;-65
2023/12/15 06:27:13;;;;;;;0.50;0.50;;;;;;;8.06;100.00;99561.78;5070436;28;20196;-65
2023/12/15 06:29:40;;;;;;;0.50;0.50;;;;;;;8.10;100.00;99578.75;5072479;28;20642;-65
2023/12/15 06:32:10;;;;;;;0.83;0.83;;;;;;;7.92;100.00;99563.72;5078669;28;20706;-66
2023/12/15 06:34:37;;;;;;;1.27;1.27;;;;;;;8.09;100.00;99589.81;5066704;28;20192;-66
2023/12/15 06:37:04;;;;;;;1.33;1.33;;;;;;;8.02;100.00;99574.63;5072225;28;20195;-65
2023/12/15 06:39:31;;;;;;;0.80;0.80;;;;;;;8.08;100.00;99600.88;5082605;28;20256;-66
2023/12/15 06:41:59;;;;;;;0.80;0.80;;;;;;;8.11;100.00;99605.13;5072462;28;20192;-65
2023/12/15 06:44:25;;;;;;;0.70;0.70;;;;;;;8.12;100.00;99601.69;5072219;28;20200;-65
2023/12/15 06:46:52;;;;;;;0.80;0.80;;;;;;;8.15;100.00;99607.56;5073303;28;20192;-65
2023/12/15 06:49:19;;;;;;;0.60;0.60;;;;;;;8.17;100.00;99605.84;5073822;28;20676;-65
2023/12/15 06:51:46;;;;;;;0.80;0.80;;;;;;;8.17;100.00;99605.84;5070007;28;20223;-65
2023/12/15 06:54:13;;;;;;;0.50;0.50;;;;;;;8.13;100.00;99604.22;5069601;28;20204;-64
2023/12/15 06:56:40;;;;;;;0.50;0.50;;;;;;;8.15;100.00;99616.94;5071550;28;20195;-65
2023/12/15 06:59:08;;;;;;;0.70;0.70;;;;;;;8.13;100.00;99621.25;5071371;28;20259;-65
2023/12/15 07:01:34;;;;;;;0.77;0.77;;;;;;;8.17;100.00;99625.44;5073373;28;20196;-65
2023/12/15 07:04:01;;;;;;;0.60;0.60;;;;;;;8.24;100.00;99638.06;5074021;28;20192;-65
2023/12/15 07:06:28;;;;;;;1.90;0.70;;;;;;;8.24;100.00;99653.38;5071231;28;20202;-65
2023/12/15 07:08:55;;;;;;;0.83;0.83;;;;;;;8.23;100.00;99659.38;5071137;28;20245;-65
2023/12/15 07:11:21;;;;;;;12.33;0.80;;;;;;;8.21;100.00;99650.88;5067303;28;20747;-65
2023/12/15 07:13:48;;;;;;;0.63;0.63;;;;;;;8.23;100.00;99654.28;5071250;28;20204;-66
2023/12/15 07:16:17;;;;;;;1.23;0.73;;;;;;;8.24;100.00;99662.78;5071146;28;20287;-65
2023/12/15 07:18:43;;;;;;;8.07;0.90;;;;;;;8.24;100.00;99658.50;5067513;28;20683;-65
2023/12/15 07:21:11;;;;;;;0.80;0.80;;;;;;;8.04;100.00;99622.25;5071587;28;20200;-65
2023/12/15 07:23:38;;;;;;;0.60;0.60;;;;;;;8.22;100.00;99655.13;5071635;28;20191;-66
2023/12/15 07:26:05;;;;;;;0.63;0.63;;;;;;;8.20;100.00;99651.78;5071472;28;20200;-65
2023/12/15 07:28:33;;;;;;;0.77;0.77;;;;;;;8.22;100.00;99661.94;5071465;28;20253;-65
2023/12/15 07:31:00;;;;;;;0.50;0.50;;;;;;;8.21;100.00;99678.13;5071521;28;20216;-65
2023/12/15 07:33:28;;;;;;;0.70;0.70;;;;;;;8.16;100.00;99662.91;5071493;28;20253;-65
2023/12/15 07:35:55;;;;;;;0.80;0.80;;;;;;;8.23;100.00;99682.38;5071446;28;20269;-65
2023/12/15 07:38:21;;;;;;;0.50;0.50;;;;;;;8.17;100.00;99682.47;5070984;28;20587;-65
2023/12/15 07:40:53;;;;;;;0.60;0.60;;;;;;;8.21;100.00;99694.28;5071151;28;20203;-66
2023/12/15 07:43:20;;;;;;;0.90;0.90;;;;;;;8.21;100.00;99696.84;5069562;28;20290;-65
2023/12/15 07:45:47;;;;;;;0.63;0.63;;;;;;;8.21;100.00;99704.50;5071139;28;20204;-65
2023/12/15 07:48:14;;;;;;;1.07;1.07;;;;;;;8.23;100.00;99697.69;5071118;28;20799;-65
2023/12/15 07:50:42;;;;;;;1.40;1.30;;;;;;;8.24;100.00;99701.91;5071171;28;20323;-66
2023/12/15 07:53:09;;;;;;;4.10;0.77;;;;;;;8.24;100.00;99694.25;5071266;28;20265;-67
2023/12/15 07:55:36;;;;;;;0.70;0.70;;;;;;;8.26;100.00;99700.19;5071325;28;20565;-66
2023/12/15 07:58:03;;;;;;;0.70;0.70;;;;;;;8.23;100.00;99718.13;5074940;28;20203;-66
2023/12/15 08:00:30;;;;;;;1.63;1.53;;;;;;;8.19;100.00;99716.47;5079901;28;20667;-65
2023/12/15 08:02:57;;;;;;;0.80;0.80;;;;;;;8.20;100.00;99727.53;5072849;28;20760;-65
2023/12/15 08:05:23;;;;;;;2.73;1.43;;;;;;;8.18;100.00;99713.94;5071294;28;20251;-66
2023/12/15 08:07:51;;;;;;;3.20;1.73;;;;;;;8.21;100.00;99730.03;5070316;28;20241;-66
2023/12/15 08:10:18;;;;;;;1.00;1.00;;;;;;;8.13;100.00;99729.34;5070695;28;20208;-66
2023/12/15 08:12:45;;;;;;;0.63;0.63;;;;;;;8.16;100.00;99747.16;5071437;28;20741;-66
2023/12/15 08:15:14;;;;;;;1.70;1.10;;;;;;;8.16;100.00;99751.41;5070873;28;20204;-65
2023/12/15 08:17:41;;;;;;;0.70;0.70;;;;;;;8.14;100.00;99756.53;5069692;28;20200;-65
2023/12/15 08:20:09;;;;;;;1.07;1.07;;;;;;;8.17;100.00;99763.34;5071473;28;20196;-66
2023/12/15 08:22:35;;;;;;;1.33;0.77;;;;;;;8.19;100.00;99770.09;5070953;28;20196;-66
2023/12/15 08:25:04;;;;;;;1.60;1.50;;;;;;;8.16;100.00;99772.69;5071092;28;20207;-66
2023/12/15 08:27:31;;;;;;;0.90;0.90;;;;;;;8.18;100.00;99775.22;5070999;28;20676;-66
2023/12/15 08:29:59;;;;;;;1.03;1.03;;;;;;;8.16;100.00;99770.16;5069627;28;20196;-66
2023/12/15 08:32:26;;;;;;;0.80;0.80;;;;;;;8.18;100.00;99776.06;5070775;28;20212;-65
2023/12/15 08:34:53;;;;;;;2.13;1.30;;;;;;;8.20;100.00;99786.28;5070685;28;20196;-66
2023/12/15 08:37:19;;;;;;;1.20;1.03;;;;;;;8.06;100.00;99773.69;5072763;28;20287;-66
2023/12/15 08:39:46;;;;;;;0.80;0.80;;;;;;;8.21;100.00;99788.78;5071254;28;20357;-65
2023/12/15 08:42:14;;;;;;;1.20;1.20;;;;;;;8.19;100.00;99795.63;5071101;28;20196;-65
2023/12/15 08:44:43;;;;;;;1.40;1.40;;;;;;;8.22;100.00;99800.69;5070597;28;20616;-65
2023/12/15 08:47:10;;;;;;;1.47;1.10;;;;;;;8.21;100.00;99801.56;5071083;28;20246;-65
2023/12/15 08:49:37;;;;;;;2.00;1.90;;;;;;;8.19;100.00;99808.41;5071033;28;20215;-65
2023/12/15 08:52:04;;;;;;;0.93;0.93;;;;;;;8.18;100.00;99809.25;5074545;28;20319;-65
2023/12/15 08:54:31;;;;;;;0.70;0.70;;;;;;;8.19;100.00;99813.50;5074491;28;20208;-65
2023/12/15 08:56:58;;;;;;;0.97;0.83;;;;;;;8.14;100.00;99815.28;5077421;28;20211;-65
2023/12/15 08:59:29;;;;;;;1.20;1.20;;;;;;;8.12;100.00;99806.78;5074309;28;20207;-65
2023/12/15 09:01:56;;;;;;;1.10;1.10;;;;;;;8.17;100.00;99820.38;5075113;28;20196;-64
2023/12/15 09:04:23;;;;;;;1.03;1.03;;;;;;;8.14;100.00;99820.38;5074325;28;20196;-65
2023/12/15 09:06:49;;;;;;;2.20;1.00;;;;;;;8.11;100.00;99825.53;5074523;28;20634;-66
2023/12/15 09:09:16;;;;;;;1.20;1.20;;;;;;;8.18;100.00;99827.13;5074131;28;20196;-65
2023/12/15 09:11:43;;;;;;;0.93;0.93;;;;;;;8.15;100.00;99816.13;5075128;28;20219;-65
2023/12/15 09:14:10;;;;;;;1.23;1.23;;;;;;;8.09;100.00;99816.19;5074431;28;20656;-65
2023/12/15 09:16:38;;;;;;;0.90;0.90;;;;;;;8.11;100.00;99824.72;5074253;28;20200;-66
2023/12/15 09:19:04;;;;;;;1.80;1.70;;;;;;;8.08;100.00;99824.75;5074043;28;20257;-65
2023/12/15 09:21:31;;;;;;;1.17;1.17;;;;;;;8.08;100.00;99830.69;5074273;28;20200;-65
2023/12/15 09:23:58;;;;;;;4.37;1.27;;;;;;;8.06;100.00;99818.81;5074182;28;20200;-65
2023/12/15 09:26:24;;;;;;;0.90;0.90;;;;;;;8.05;100.00;99828.16;5074071;28;20196;-65
2023/12/15 09:28:52;;;;;;;2.07;2.03;;;;;;;8.02;100.00;99830.75;5074166;28;20349;-64
2023/12/15 09:31:19;;;;;;;0.83;0.83;;;;;;;8.05;100.00;99833.28;5073814;28;20219;-64
2023/12/15 09:33:47;;;;;;;0.60;0.60;;;;;;;8.05;100.00;99838.38;5085828;28;20253;-65
2023/12/15 09:36:14;;;;;;;1.70;1.07;;;;;;;7.97;100.00;99822.34;5077129;28;20196;-65
2023/12/15 09:38:40;;;;;;;0.70;0.70;;;;;;;8.01;100.00;99829.09;5081219;28;20291;-65
2023/12/15 09:41:08;;;;;;;0.77;0.77;;;;;;;8.01;100.00;99838.47;5075863;28;20580;-65
2023/12/15 09:43:35;;;;;;;0.80;0.80;;;;;;;7.93;100.00;99836.00;5073600;28;20203;-64
2023/12/15 09:46:03;;;;;;;0.90;0.90;;;;;;;7.81;100.00;99810.63;5073831;28;20291;-65
2023/12/15 09:48:30;;;;;;;2.63;1.10;;;;;;;7.92;100.00;99829.19;5074016;28;20196;-65
2023/12/15 09:51:02;;;;;;;0.70;0.70;;;;;;;7.87;100.00;99830.97;5073461;28;20758;-65
2023/12/15 09:53:35;;;;;;;0.87;0.87;;;;;;;7.89;100.00;99835.19;5073676;28;20203;-64
2023/12/15 09:56:02;;;;;;;0.80;0.80;;;;;;;7.85;100.00;99840.34;5073699;28;20210;-64
2023/12/15 09:58:29;;;;;;;0.40;0.40;;;;;;;7.87;100.00;99838.63;5070948;28;20223;-65
2023/12/15 10:00:57;;;;;;;2.93;0.73;;;;;;;7.83;100.00;99836.97;5073348;28;20204;-64
2023/12/15 10:03:24;;;;;;;1.40;1.30;;;;;;;7.80;100.00;99842.09;5072850;28;20200;-64
2023/12/15 10:05:51;;;;;;;0.97;0.97;;;;;;;7.79;100.00;99845.50;5073459;28;20289;-64
2023/12/15 10:08:22;;;;;;;1.13;1.13;;;;;;;7.74;100.00;99857.50;5073644;28;20612;-65
2023/12/15 10:10:50;;;;;;;1.80;0.90;;;;;;;7.75;100.00;99856.63;5073618;28;20204;-64
2023/12/15 10:13:17;;;;;;;1.00;1.00;;;;;;;7.72;100.00;99851.56;5075958;28;20295;-65
2023/12/15 10:15:44;;;;;;;1.30;1.20;;;;;;;7.72;100.00;99854.94;5079405;28;20200;-64
2023/12/15 10:18:13;;;;;;;1.07;1.07;;;;;;;7.62;100.00;99844.88;5073300;28;20200;-65
2023/12/15 10:20:40;;;;;;;0.70;0.70;;;;;;;7.67;100.00;99863.53;5073137;28;20200;-64
2023/12/15 10:23:08;;;;;;;1.00;1.00;;;;;;;7.57;100.00;99857.69;5073290;28;20196;-64
2023/12/15 10:25:36;;;;;;;0.90;0.90;;;;;;;7.55;100.00;99853.47;5059654;28;20196;-65
2023/12/15 10:28:04;;;;;;;0.87;0.87;;;;;;;7.43;100.00;99845.94;5072915;28;20200;-65
2023/12/15 10:30:32;;;;;;;0.57;0.57;;;;;;;7.53;100.00;99867.94;5072905;28;20207;-64
2023/12/15 10:33:00;;;;;;;0.77;0.77;;;;;;;7.53;100.00;99876.41;5072750;28;20216;-64
2023/12/15 10:35:29;;;;;;;0.50;0.50;;;;;;;7.51;100.00;99873.06;5072867;28;20200;-65
2023/12/15 10:37:56;;;;;;;0.70;0.70;;;;;;;7.54;100.00;99865.38;5072613;28;20273;-65
2023/12/15 10:40:23;;;;;;;0.80;0.80;;;;;;;7.60;100.00;99877.19;5073028;28;20257;-65
2023/12/15 10:42:52;;;;;;;0.87;0.87;;;;;;;7.59;100.00;99883.19;5072647;28;20254;-64
2023/12/15 10:45:20;;;;;;;0.80;0.80;;;;;;;7.58;100.00;99884.03;5079529;28;20191;-65
2023/12/15 10:47:49;;;;;;;2.17;0.80;;;;;;;7.52;100.00;99882.41;5073456;28;20208;-65
2023/12/15 10:50:16;;;;;;;0.93;0.87;;;;;;;7.47;100.00;99885.84;5069375;28;20204;-67
2023/12/15 10:52:45;;;;;;;0.83;0.83;;;;;;;7.47;100.00;99903.69;5069086;28;20227;-63
2023/12/15 10:55:14;;;;;;;0.67;0.67;;;;;;;7.46;100.00;99912.22;5075991;28;20290;-63
2023/12/15 10:57:41;;;;;;;0.80;0.80;;;;;;;7.43;100.00;99917.34;5071119;28;20636;-63
2023/12/15 11:00:10;;;;;;;1.43;1.33;;;;;;;7.43;100.00;99909.72;5071856;28;20206;-63
2023/12/15 11:02:38;;;;;;;0.53;0.53;;;;;;;7.35;100.00;99913.16;5070931;28;20254;-63
2023/12/15 11:05:09;;;;;;;0.57;0.57;;;;;;;7.37;100.00;99900.38;5070259;28;20200;-63
2023/12/15 11:07:36;;;;;;;1.00;1.00;;;;;;;7.35;100.00;99904.66;5070451;28;20233;-63
2023/12/15 11:10:04;;;;;;;0.67;0.67;;;;;;;7.32;100.00;99913.19;5067810;28;20688;-63
2023/12/15 11:12:32;;;;;;;0.80;0.80;;;;;;;7.29;100.00;99910.69;5071206;28;20216;-63
2023/12/15 11:15:02;;;;;;;0.80;0.80;;;;;;;7.29;100.00;99903.03;5068724;28;20204;-63
2023/12/15 11:17:31;;;;;;;1.00;1.00;;;;;;;7.22;100.00;99901.38;5071579;28;20269;-64
2023/12/15 11:20:02;;;;;;;0.73;0.73;;;;;;;7.27;100.00;99925.13;5068544;28;20266;-63
2023/12/15 11:22:29;;;;;;;0.70;0.70;;;;;;;7.22;100.00;99916.69;5070918;28;20235;-63
2023/12/15 11:24:57;;;;;;;0.70;0.70;;;;;;;7.22;100.00;99926.88;5070643;28;20257;-63
2023/12/15 11:27:25;;;;;;;1.10;1.10;;;;;;;7.20;100.00;99923.50;5073433;28;20223;-63
2023/12/15 11:29:51;;;;;;;0.60;0.60;;;;;;;7.21;100.00;99920.09;5069434;28;20215;-64
2023/12/15 11:32:34;;;;;;;0.90;0.77;;;;;;;7.20;100.00;99912.47;5069245;28;20700;-64
2023/12/15 11:35:01;;;;;;;0.70;0.70;;;;;;;7.25;100.00;99931.94;5069344;28;20202;-63